createdAt,value
2019-04-27T00:02:26.569Z,67.40
2019-04-27T00:05:07.849Z,67.70
2019-04-27T00:07:41.207Z,67.80
2019-04-27T00:10:13.571Z,67.60
2019-04-27T00:12:42.893Z,67.80
2019-04-27T00:15:13.326Z,68.00
2019-04-27T00:17:49.299Z,68.30
2019-04-27T00:20:18.274Z,68.40
2019-04-27T00:22:48.573Z,68.40
2019-04-27T00:25:17.262Z,68.70
2019-04-27T00:27:45.950Z,69.10
2019-04-27T00:30:15.276Z,69.40
2019-04-27T00:32:43.961Z,69.60
2019-04-27T00:35:14.259Z,69.70
2019-04-27T00:37:44.945Z,70.00
2019-04-27T00:40:15.302Z,70.00
2019-04-27T00:42:44.171Z,70.10
2019-04-27T00:45:13.573Z,70.30
2019-04-27T00:47:54.596Z,70.30
2019-04-27T00:50:13.446Z,70.60
2019-04-27T00:52:42.915Z,70.70
2019-04-27T00:55:13.271Z,70.80
2019-04-27T00:57:53.659Z,71.10
2019-04-27T01:00:40.397Z,71.10
2019-04-27T01:03:10.656Z,71.50
2019-04-27T01:05:39.376Z,71.90
2019-04-27T01:08:08.050Z,71.90
2019-04-27T01:10:36.783Z,71.70
2019-04-27T01:13:06.178Z,71.50
2019-04-27T01:15:34.898Z,71.50
2019-04-27T01:18:12.233Z,72.20
2019-04-27T01:20:34.166Z,71.40
2019-04-27T01:23:02.851Z,71.00
2019-04-27T01:25:51.086Z,71.30
2019-04-27T01:28:21.477Z,71.30
2019-04-27T01:30:51.783Z,71.00
2019-04-27T01:33:20.474Z,71.20
2019-04-27T01:35:49.235Z,71.00
2019-04-27T01:38:19.188Z,70.90
2019-04-27T01:40:49.712Z,71.20
2019-04-27T01:43:18.719Z,71.40
2019-04-27T01:45:48.821Z,71.60
2019-04-27T01:48:23.825Z,70.80
2019-04-27T01:50:49.218Z,71.60
2019-04-27T01:53:19.023Z,72.20
2019-04-27T01:55:49.146Z,72.30
2019-04-27T01:58:20.235Z,72.60
2019-04-27T02:01:06.465Z,72.60
2019-04-27T02:03:39.665Z,72.60
2019-04-27T02:06:09.180Z,72.70
2019-04-27T02:08:37.986Z,73.00
2019-04-27T02:11:06.728Z,73.20
2019-04-27T02:13:35.412Z,73.20
2019-04-27T02:16:04.136Z,73.20
2019-04-27T02:18:37.550Z,73.20
2019-04-27T02:21:03.186Z,73.10
2019-04-27T02:23:31.872Z,72.80
2019-04-27T02:26:00.579Z,73.10
2019-04-27T02:28:47.294Z,73.50
2019-04-27T02:31:29.944Z,73.40
2019-04-27T02:34:12.200Z,73.60
2019-04-27T02:36:40.920Z,74.00
2019-04-27T02:39:09.685Z,73.90
2019-04-27T02:41:40.046Z,74.10
2019-04-27T02:44:25.780Z,74.10
2019-04-27T02:46:54.518Z,74.40
2019-04-27T02:49:23.223Z,74.50
2019-04-27T02:51:53.519Z,74.60
2019-04-27T02:54:22.203Z,74.80
2019-04-27T02:56:52.750Z,74.80
2019-04-27T02:59:21.258Z,74.70
2019-04-27T03:01:53.466Z,74.80
2019-04-27T03:04:21.899Z,74.90
2019-04-27T03:06:50.619Z,75.20
2019-04-27T03:09:20.474Z,75.20
2019-04-27T03:11:50.074Z,75.30
2019-04-27T03:14:36.778Z,75.30
2019-04-27T03:17:09.982Z,75.60
2019-04-27T03:19:40.404Z,75.70
2019-04-27T03:22:13.232Z,75.90
2019-04-27T03:25:00.187Z,75.70
2019-04-27T03:27:33.481Z,75.70
2019-04-27T03:30:02.199Z,75.70
2019-04-27T03:32:31.797Z,75.70
2019-04-27T03:35:02.783Z,75.80
2019-04-27T03:37:31.108Z,75.60
2019-04-27T03:40:00.271Z,75.40
2019-04-27T03:42:29.396Z,75.20
2019-04-27T03:45:00.353Z,75.30
2019-04-27T03:47:30.585Z,75.80
2019-04-27T03:50:00.047Z,75.90
2019-04-27T03:52:33.633Z,75.80
2019-04-27T03:55:10.338Z,75.80
2019-04-27T03:57:59.938Z,75.70
2019-04-27T04:00:32.294Z,75.80
2019-04-27T04:03:01.691Z,75.70
2019-04-27T04:05:30.420Z,76.10
2019-04-27T04:08:00.416Z,76.40
2019-04-27T04:10:31.015Z,76.40
2019-04-27T04:13:04.277Z,76.60
2019-04-27T04:15:46.696Z,76.50
2019-04-27T04:18:15.685Z,77.10
2019-04-27T04:20:45.308Z,77.90
2019-04-27T04:23:13.994Z,78.80
2019-04-27T04:25:42.724Z,80.20
2019-04-27T04:28:11.408Z,81.20
2019-04-27T04:30:40.399Z,82.30
2019-04-27T04:33:10.210Z,83.40
2019-04-27T04:35:39.897Z,84.20
2019-04-27T04:38:10.393Z,83.20
2019-04-27T04:40:52.794Z,83.50
2019-04-27T04:43:35.398Z,83.90
2019-04-27T04:46:12.340Z,82.80
2019-04-27T04:48:40.432Z,83.10
2019-04-27T04:51:10.160Z,82.30
2019-04-27T04:53:40.617Z,82.20
2019-04-27T04:56:10.761Z,82.50
2019-04-27T04:58:41.466Z,82.90
2019-04-27T05:01:10.072Z,83.20
2019-04-27T05:03:38.919Z,84.10
2019-04-27T05:06:08.850Z,84.10
2019-04-27T05:08:39.267Z,83.00
2019-04-27T05:11:09.671Z,82.80
2019-04-27T05:13:39.355Z,83.10
2019-04-27T05:16:08.932Z,84.30
2019-04-27T05:18:39.253Z,83.90
2019-04-27T05:21:18.823Z,84.20
2019-04-27T05:23:48.685Z,85.10
2019-04-27T05:26:19.005Z,85.20
2019-04-27T05:28:49.197Z,86.00
2019-04-27T05:31:19.480Z,85.40
2019-04-27T05:33:49.076Z,85.70
2019-04-27T05:36:19.283Z,86.00
2019-04-27T05:38:49.715Z,85.70
2019-04-27T05:41:18.769Z,85.80
2019-04-27T05:43:59.187Z,86.10
2019-04-27T05:46:36.628Z,85.00
2019-04-27T05:49:09.531Z,85.60
2019-04-27T05:51:41.728Z,84.90
2019-04-27T05:54:09.125Z,84.90
2019-04-27T05:56:38.977Z,84.80
2019-04-27T05:59:09.185Z,84.40
2019-04-27T06:01:38.957Z,85.00
2019-04-27T06:04:09.064Z,85.00
2019-04-27T06:06:39.827Z,85.70
2019-04-27T06:09:28.960Z,85.80
2019-04-27T06:11:59.081Z,86.60
2019-04-27T06:14:29.262Z,86.20
2019-04-27T06:16:59.672Z,86.90
2019-04-27T06:19:29.149Z,87.30
2019-04-27T06:21:59.458Z,85.90
2019-04-27T06:24:29.718Z,85.10
2019-04-27T06:26:59.656Z,85.50
2019-04-27T06:29:29.240Z,85.50
2019-04-27T06:31:59.339Z,85.70
2019-04-27T06:34:30.614Z,87.00
2019-04-27T06:36:59.915Z,87.60
2019-04-27T06:39:29.820Z,88.40
2019-04-27T06:42:00.873Z,88.30
2019-04-27T06:44:29.424Z,88.80
2019-04-27T06:46:59.189Z,88.30
2019-04-27T06:49:29.515Z,88.40
2019-04-27T06:51:58.746Z,88.10
2019-04-27T06:54:28.824Z,87.90
2019-04-27T06:56:59.227Z,88.60
2019-04-27T06:59:28.880Z,88.10
2019-04-27T07:01:59.311Z,88.90
2019-04-27T07:04:29.434Z,88.50
2019-04-27T07:07:01.249Z,89.80
2019-04-27T07:09:29.474Z,88.50
2019-04-27T07:11:59.249Z,89.10
2019-04-27T07:14:29.454Z,88.50
2019-04-27T07:16:59.090Z,87.60
2019-04-27T07:19:29.119Z,87.80
2019-04-27T07:21:59.455Z,87.20
2019-04-27T07:24:29.204Z,87.70
2019-04-27T07:26:59.702Z,86.90
2019-04-27T07:29:29.275Z,87.10
2019-04-27T07:31:59.696Z,86.70
2019-04-27T07:34:30.325Z,87.10
2019-04-27T07:36:59.749Z,86.70
2019-04-27T07:39:29.357Z,87.00
2019-04-27T07:41:58.533Z,87.00
2019-04-27T07:44:34.787Z,86.90
2019-04-27T07:47:21.358Z,87.20
2019-04-27T07:49:50.049Z,86.00
2019-04-27T07:52:20.467Z,86.70
2019-04-27T07:54:49.330Z,86.70
2019-04-27T07:57:19.728Z,87.20
2019-04-27T07:59:50.211Z,87.10
2019-04-27T08:02:19.279Z,86.40
2019-04-27T08:04:50.180Z,86.90
2019-04-27T08:07:19.676Z,85.80
2019-04-27T08:09:49.642Z,86.80
2019-04-27T08:12:20.668Z,87.00
2019-04-27T08:14:49.240Z,87.40
2019-04-27T08:17:19.105Z,87.40
2019-04-27T08:19:49.601Z,87.70
2019-04-27T08:22:19.315Z,86.60
2019-04-27T08:24:49.622Z,86.20
2019-04-27T08:27:23.094Z,87.50
2019-04-27T08:30:01.974Z,86.70
2019-04-27T08:32:32.276Z,86.30
2019-04-27T08:35:00.959Z,87.00
2019-04-27T08:37:29.683Z,86.80
2019-04-27T08:39:59.247Z,87.00
2019-04-27T08:42:29.376Z,87.00
2019-04-27T08:44:59.440Z,88.20
2019-04-27T08:47:29.352Z,88.70
2019-04-27T08:49:59.116Z,88.40
2019-04-27T08:52:29.012Z,88.90
2019-04-27T08:54:59.426Z,87.90
2019-04-27T08:57:29.019Z,87.30
2019-04-27T08:59:59.522Z,87.50
2019-04-27T09:02:39.708Z,87.10
2019-04-27T09:04:59.617Z,86.50
2019-04-27T09:07:33.142Z,86.90
2019-04-27T09:10:06.382Z,86.40
2019-04-27T09:12:42.824Z,85.90
2019-04-27T09:15:21.765Z,85.40
2019-04-27T09:17:55.287Z,85.80
2019-04-27T09:20:25.552Z,85.40
2019-04-27T09:22:54.250Z,85.50
2019-04-27T09:25:22.990Z,85.40
2019-04-27T09:27:51.674Z,85.60
2019-04-27T09:30:20.402Z,85.10
2019-04-27T09:32:49.086Z,84.00
2019-04-27T09:35:17.830Z,83.80
2019-04-27T09:37:46.506Z,84.00
2019-04-27T09:40:17.043Z,84.80
2019-04-27T09:42:46.346Z,84.00
2019-04-27T09:45:15.918Z,83.90
2019-04-27T09:47:46.678Z,83.50
2019-04-27T09:50:16.184Z,84.20
2019-04-27T09:52:45.936Z,84.00
2019-04-27T09:55:16.324Z,83.90
2019-04-27T09:57:46.537Z,83.90
2019-04-27T10:00:15.984Z,83.60
2019-04-27T10:02:46.424Z,84.00
2019-04-27T10:05:15.371Z,84.80
2019-04-27T10:07:45.704Z,84.00
2019-04-27T10:10:15.978Z,84.20
2019-04-27T10:12:46.513Z,84.30
2019-04-27T10:15:16.235Z,82.60
2019-04-27T10:17:45.003Z,82.90
2019-04-27T10:20:13.715Z,83.80
2019-04-27T10:22:43.715Z,83.80
2019-04-27T10:25:23.247Z,83.30
2019-04-27T10:27:53.506Z,82.20
2019-04-27T10:30:22.226Z,81.60
2019-04-27T10:32:50.908Z,81.60
2019-04-27T10:35:19.626Z,81.60
2019-04-27T10:37:48.311Z,81.60
2019-04-27T10:40:17.024Z,82.40
2019-04-27T10:42:45.934Z,81.60
2019-04-27T10:45:16.318Z,80.90
2019-04-27T10:47:46.041Z,80.50
2019-04-27T10:50:16.018Z,81.40
2019-04-27T10:52:53.344Z,80.80
2019-04-27T10:55:16.114Z,81.20
2019-04-27T10:57:44.890Z,80.00
2019-04-27T11:00:16.704Z,80.20
2019-04-27T11:02:45.505Z,80.00
2019-04-27T11:05:15.799Z,78.90
2019-04-27T11:07:46.256Z,79.00
2019-04-27T11:10:16.328Z,78.90
2019-04-27T11:12:45.821Z,78.90
2019-04-27T11:15:16.212Z,78.60
2019-04-27T11:17:45.963Z,78.00
2019-04-27T11:20:16.114Z,77.90
2019-04-27T11:22:46.429Z,78.60
2019-04-27T11:25:16.459Z,78.30
2019-04-27T11:27:45.332Z,76.90
2019-04-27T11:30:15.688Z,76.40
2019-04-27T11:32:44.543Z,77.30
2019-04-27T11:35:20.634Z,75.10
2019-04-27T11:37:50.894Z,75.50
2019-04-27T11:40:20.922Z,75.00
2019-04-27T11:42:49.624Z,75.40
2019-04-27T11:45:18.350Z,75.40
2019-04-27T11:47:47.029Z,75.80
2019-04-27T11:50:16.575Z,74.80
2019-04-27T11:52:45.766Z,74.70
2019-04-27T11:55:16.064Z,74.20
2019-04-27T11:57:44.892Z,74.10
2019-04-27T12:00:16.604Z,74.10
2019-04-27T12:02:45.775Z,73.50
2019-04-27T12:05:15.971Z,72.80
2019-04-27T12:07:47.420Z,72.00
2019-04-27T12:10:15.852Z,72.20
2019-04-27T12:12:46.153Z,72.90
2019-04-27T12:15:16.145Z,72.20
2019-04-27T12:17:46.129Z,73.40
2019-04-27T12:20:17.540Z,73.50
2019-04-27T12:22:45.525Z,73.30
2019-04-27T12:25:14.250Z,72.40
2019-04-27T12:28:01.016Z,72.60
2019-04-27T12:30:31.306Z,73.20
2019-04-27T12:32:59.991Z,72.30
2019-04-27T12:35:28.712Z,72.40
2019-04-27T12:37:57.491Z,72.30
2019-04-27T12:40:26.869Z,71.90
2019-04-27T12:42:55.690Z,71.90
2019-04-27T12:45:24.406Z,71.40
2019-04-27T12:47:53.078Z,71.20
2019-04-27T12:50:21.796Z,70.80
2019-04-27T12:52:52.054Z,71.50
2019-04-27T12:55:38.902Z,71.70
2019-04-27T12:58:09.173Z,70.70
2019-04-27T13:00:39.531Z,70.80
2019-04-27T13:03:08.364Z,70.50
2019-04-27T13:05:37.049Z,70.10
2019-04-27T13:08:05.772Z,70.30
2019-04-27T13:10:34.460Z,69.20
2019-04-27T13:13:03.168Z,69.30
2019-04-27T13:15:31.862Z,69.30
2019-04-27T13:18:00.575Z,69.40
2019-04-27T13:20:29.267Z,68.10
2019-04-27T13:22:57.974Z,68.50
2019-04-27T13:25:26.665Z,68.40
2019-04-27T13:27:56.668Z,67.90
2019-04-27T13:30:25.791Z,68.60
2019-04-27T13:32:56.195Z,67.80
2019-04-27T13:35:25.848Z,67.10
2019-04-27T13:37:55.935Z,65.90
2019-04-27T13:40:25.924Z,65.80
2019-04-27T13:43:07.600Z,64.90
2019-04-27T13:45:40.446Z,64.20
2019-04-27T13:48:10.766Z,64.30
2019-04-27T13:50:46.788Z,63.40
2019-04-27T13:53:16.756Z,62.70
2019-04-27T13:55:46.485Z,61.20
2019-04-27T13:58:16.079Z,58.60
2019-04-27T14:00:44.764Z,55.00
2019-04-27T14:03:14.364Z,53.20
2019-04-27T14:05:43.800Z,51.70
2019-04-27T14:08:12.510Z,53.30
2019-04-27T14:10:41.486Z,55.30
2019-04-27T14:13:11.036Z,56.80
2019-04-27T14:15:39.987Z,58.30
2019-04-27T14:18:08.682Z,58.20
2019-04-27T14:20:38.978Z,58.20
2019-04-27T14:23:12.347Z,59.60
2019-04-27T14:25:41.056Z,59.80
2019-04-27T14:28:09.764Z,59.20
2019-04-27T14:30:40.001Z,58.90
2019-04-27T14:33:08.877Z,59.50
2019-04-27T14:35:37.552Z,57.50
2019-04-27T14:38:06.254Z,57.20
2019-04-27T14:40:34.940Z,57.70
2019-04-27T14:43:03.658Z,57.30
2019-04-27T14:45:32.360Z,58.90
2019-04-27T14:48:01.089Z,57.00
2019-04-27T14:50:29.750Z,56.50
2019-04-27T14:52:59.012Z,57.30
2019-04-27T14:55:28.249Z,57.70
2019-04-27T14:57:58.674Z,58.70
2019-04-27T15:00:28.767Z,59.10
2019-04-27T15:02:59.126Z,59.90
2019-04-27T15:05:27.964Z,60.70
2019-04-27T15:07:56.678Z,59.60
2019-04-27T15:10:27.089Z,58.90
2019-04-27T15:12:55.705Z,57.20
2019-04-27T15:15:24.397Z,57.30
2019-04-27T15:17:53.107Z,58.00
2019-04-27T15:20:41.642Z,58.00
2019-04-27T15:23:10.232Z,58.50
2019-04-27T15:25:45.106Z,59.00
2019-04-27T15:28:12.150Z,59.30
2019-04-27T15:30:59.537Z,58.60
2019-04-27T15:33:46.743Z,58.80
2019-04-27T15:36:22.817Z,58.90
2019-04-27T15:39:01.818Z,59.50
2019-04-27T15:41:38.043Z,59.60
2019-04-27T15:44:08.853Z,59.20
2019-04-27T15:46:38.984Z,59.90
2019-04-27T15:49:10.645Z,60.00
2019-04-27T15:51:38.276Z,59.50
2019-04-27T15:54:07.103Z,60.10
2019-04-27T15:56:37.042Z,60.60
2019-04-27T15:59:05.925Z,58.90
2019-04-27T16:01:35.923Z,60.00
2019-04-27T16:04:07.558Z,59.80
2019-04-27T16:06:35.629Z,59.90
2019-04-27T16:09:09.946Z,59.20
2019-04-27T16:11:38.407Z,58.90
2019-04-27T16:14:07.851Z,58.60
2019-04-27T16:16:38.510Z,58.00
2019-04-27T16:19:08.973Z,58.50
2019-04-27T16:21:41.587Z,58.00
2019-04-27T16:24:08.452Z,56.90
2019-04-27T16:26:38.739Z,56.70
2019-04-27T16:29:08.283Z,56.70
2019-04-27T16:31:38.480Z,55.70
2019-04-27T16:34:08.315Z,55.90
2019-04-27T16:36:37.818Z,56.40
2019-04-27T16:39:09.867Z,56.60
2019-04-27T16:41:38.916Z,57.10
2019-04-27T16:44:10.991Z,57.50
2019-04-27T16:46:42.774Z,57.60
2019-04-27T16:49:14.048Z,57.80
2019-04-27T16:51:40.463Z,57.50
2019-04-27T16:54:13.025Z,58.20
2019-04-27T16:56:39.684Z,58.00
2019-04-27T16:59:26.752Z,58.50
2019-04-27T17:01:41.736Z,58.50
2019-04-27T17:04:11.324Z,58.50
2019-04-27T17:06:46.006Z,59.00
2019-04-27T17:09:11.659Z,59.40
2019-04-27T17:11:43.828Z,59.60
2019-04-27T17:14:35.093Z,59.60
2019-04-27T17:17:03.757Z,59.70
2019-04-27T17:19:35.959Z,60.10
2019-04-27T17:22:04.390Z,60.40
2019-04-27T17:24:42.294Z,60.40
2019-04-27T17:27:11.131Z,60.40
2019-04-27T17:29:38.881Z,60.60
2019-04-27T17:32:08.897Z,60.80
2019-04-27T17:34:39.540Z,60.80
2019-04-27T17:37:08.330Z,60.80
2019-04-27T17:39:38.751Z,60.90
2019-04-27T17:42:08.491Z,60.60
2019-04-27T17:44:39.144Z,60.90
2019-04-27T17:47:08.844Z,61.20
2019-04-27T17:49:38.472Z,61.00
2019-04-27T17:52:08.817Z,61.50
2019-04-27T17:54:42.625Z,61.60
2019-04-27T17:57:10.404Z,62.10
2019-04-27T17:59:38.446Z,62.40
2019-04-27T18:02:08.905Z,62.30
2019-04-27T18:04:40.804Z,62.80
2019-04-27T18:07:08.946Z,63.40
2019-04-27T18:09:43.305Z,63.50
2019-04-27T18:12:14.883Z,64.00
2019-04-27T18:14:41.181Z,63.30
2019-04-27T18:17:12.076Z,62.90
2019-04-27T18:19:55.851Z,63.70
2019-04-27T18:22:24.581Z,63.80
2019-04-27T18:25:06.292Z,63.60
2019-04-27T18:27:33.598Z,63.70
2019-04-27T18:30:19.527Z,63.90
2019-04-27T18:32:49.010Z,64.20
2019-04-27T18:35:19.936Z,64.70
2019-04-27T18:37:48.293Z,65.10
2019-04-27T18:40:18.224Z,65.40
2019-04-27T18:42:47.123Z,65.70
2019-04-27T18:45:15.811Z,66.00
2019-04-27T18:47:47.967Z,66.20
2019-04-27T18:50:20.886Z,66.30
2019-04-27T18:53:03.106Z,66.90
2019-04-27T18:55:31.800Z,67.20
2019-04-27T18:58:02.084Z,67.00
2019-04-27T19:00:30.934Z,66.70
2019-04-27T19:02:59.665Z,66.50
2019-04-27T19:05:39.641Z,66.70
2019-04-27T19:07:58.749Z,67.10
2019-04-27T19:10:28.192Z,67.20
2019-04-27T19:12:58.511Z,67.30
2019-04-27T19:15:28.541Z,67.60
2019-04-27T19:17:58.144Z,67.60
2019-04-27T19:20:28.677Z,67.50
2019-04-27T19:22:57.301Z,67.60
2019-04-27T19:25:28.780Z,67.70
2019-04-27T19:28:02.248Z,68.00
2019-04-27T19:30:32.527Z,68.00
2019-04-27T19:33:01.465Z,69.00
2019-04-27T19:35:30.153Z,68.50
2019-04-27T19:37:59.037Z,68.80
2019-04-27T19:40:29.016Z,69.50
2019-04-27T19:42:58.852Z,69.10
2019-04-27T19:45:29.251Z,69.10
2019-04-27T19:47:58.146Z,69.30
2019-04-27T19:50:28.488Z,69.20
2019-04-27T19:52:58.716Z,69.30
2019-04-27T19:55:28.064Z,69.50
2019-04-27T19:57:57.067Z,69.80
2019-04-27T20:00:39.857Z,69.90
2019-04-27T20:03:11.115Z,69.00
2019-04-27T20:05:39.917Z,68.00
2019-04-27T20:08:10.220Z,67.80
2019-04-27T20:10:38.908Z,68.60
2019-04-27T20:13:07.676Z,68.40
2019-04-27T20:15:36.377Z,68.50
2019-04-27T20:18:05.108Z,68.90
2019-04-27T20:20:33.824Z,68.90
2019-04-27T20:23:02.611Z,69.00
2019-04-27T20:25:31.399Z,69.10
2019-04-27T20:28:00.912Z,69.20
2019-04-27T20:30:31.521Z,69.40
2019-04-27T20:33:00.929Z,69.20
2019-04-27T20:35:29.713Z,69.60
2019-04-27T20:37:58.446Z,69.80
2019-04-27T20:40:27.131Z,69.80
2019-04-27T20:42:55.875Z,69.70
2019-04-27T20:45:24.571Z,70.10
2019-04-27T20:47:53.308Z,70.30
2019-04-27T20:50:22.064Z,70.60
2019-04-27T20:52:52.367Z,71.00
2019-04-27T20:55:21.466Z,71.20
2019-04-27T20:57:59.640Z,71.40
2019-04-27T21:00:22.015Z,71.50
2019-04-27T21:02:58.114Z,71.70
2019-04-27T21:05:44.961Z,71.50
2019-04-27T21:08:15.251Z,71.20
2019-04-27T21:10:43.939Z,71.50
2019-04-27T21:13:12.636Z,71.50
2019-04-27T21:15:41.926Z,71.80
2019-04-27T21:18:11.493Z,71.70
2019-04-27T21:20:41.210Z,72.10
2019-04-27T21:23:11.890Z,71.80
2019-04-27T21:25:42.101Z,71.80
2019-04-27T21:28:17.971Z,70.50
2019-04-27T21:30:41.381Z,70.50
2019-04-27T21:33:11.475Z,70.50
2019-04-27T21:35:40.414Z,70.80
2019-04-27T21:38:09.103Z,71.30
2019-04-27T21:40:37.823Z,71.40
2019-04-27T21:43:06.527Z,71.50
2019-04-27T21:45:35.256Z,72.40
2019-04-27T21:48:03.950Z,71.90
2019-04-27T21:50:32.675Z,71.70
2019-04-27T21:53:21.062Z,71.70
2019-04-27T21:55:53.110Z,71.60
2019-04-27T21:58:28.628Z,71.40
2019-04-27T22:01:05.404Z,71.60
2019-04-27T22:03:34.092Z,71.50
2019-04-27T22:06:02.815Z,71.60
2019-04-27T22:08:31.919Z,71.40
2019-04-27T22:11:01.508Z,71.40
2019-04-27T22:13:31.124Z,71.50
2019-04-27T22:16:00.169Z,71.30
2019-04-27T22:18:28.859Z,71.50
2019-04-27T22:20:57.588Z,71.50
2019-04-27T22:23:27.862Z,71.70
2019-04-27T22:25:56.582Z,72.00
2019-04-27T22:28:25.273Z,72.00
2019-04-27T22:30:53.993Z,71.90
2019-04-27T22:33:22.681Z,71.80
2019-04-27T22:35:51.843Z,72.10
2019-04-27T22:38:20.607Z,72.00
2019-04-27T22:41:02.848Z,72.00
2019-04-27T22:43:51.297Z,71.80
2019-04-27T22:46:21.789Z,71.70
2019-04-27T22:48:51.686Z,71.60
2019-04-27T22:51:20.508Z,71.50
2019-04-27T22:53:50.788Z,71.30
2019-04-27T22:56:22.695Z,71.50
2019-04-27T22:59:00.452Z,71.20
2019-04-27T23:01:24.913Z,71.50
2019-04-27T23:03:55.177Z,71.60
2019-04-27T23:06:23.905Z,71.60
2019-04-27T23:08:52.605Z,72.40
2019-04-27T23:11:21.331Z,71.50
2019-04-27T23:13:50.664Z,71.60
2019-04-27T23:16:21.971Z,71.50
2019-04-27T23:18:51.550Z,71.50
2019-04-27T23:21:20.903Z,71.40
2019-04-27T23:23:51.603Z,72.10
2019-04-27T23:26:21.129Z,71.60
2019-04-27T23:28:51.425Z,71.40
2019-04-27T23:31:24.606Z,71.60
2019-04-27T23:33:53.624Z,71.60
2019-04-27T23:36:22.351Z,72.00
2019-04-27T23:38:51.038Z,71.90
2019-04-27T23:41:19.771Z,71.90
2019-04-27T23:43:48.464Z,71.80
2019-04-27T23:46:17.184Z,71.50
2019-04-27T23:48:45.879Z,71.50
2019-04-27T23:51:19.023Z,71.80
2019-04-27T23:53:47.711Z,71.90
2019-04-27T23:56:16.400Z,72.30
2019-04-27T23:58:45.195Z,72.30
